Time;durP1;ratioP1;P1;durP2;ratioP2;P2;SDS_P1;SDS_P2;PMS_P1;PMS_P2;Temp;Humidity;BMP_temperature;BMP_pressure;BME280_temperature;BME280_humidity;BME280_pressure;Samples;Min_cycle;Max_cycle;Signal;HPM_P1;HPM_P2
2021/06/21 00:00:27;;;;;;;13.38;8.25;;;;;;;;;;4989987;28;20221;-66
2021/06/21 00:02:52;;;;;;;11.93;8.30;;;;;;;;;;4993518;28;20198;-67
2021/06/21 00:05:18;;;;;;;13.35;8.30;;;;;;;;;;4991785;28;20198;-66
2021/06/21 00:07:43;;;;;;;12.70;7.60;;;;;;;;;;4983230;28;20191;-69
2021/06/21 00:10:11;;;;;;;12.00;7.72;;;;;;;;;;4996943;28;20206;-67
2021/06/21 00:12:39;;;;;;;16.60;9.07;;;;;;;;;;4987417;28;20937;-68
2021/06/21 00:15:05;;;;;;;13.50;9.23;;;;;;;;;;4993564;28;20205;-68
2021/06/21 00:17:31;;;;;;;14.07;9.38;;;;;;;;;;4982896;28;20222;-68
2021/06/21 00:19:56;;;;;;;19.95;11.00;;;;;;;;;;4995753;28;20678;-71
2021/06/21 00:22:21;;;;;;;18.08;10.30;;;;;;;;;;4984279;28;20210;-67
2021/06/21 00:24:47;;;;;;;15.45;10.25;;;;;;;;;;4995584;28;20197;-72
2021/06/21 00:27:13;;;;;;;16.23;10.65;;;;;;;;;;4984916;28;20183;-68
2021/06/21 00:29:39;;;;;;;16.45;11.05;;;;;;;;;;4998378;28;20191;-69
2021/06/21 00:32:05;;;;;;;14.23;11.20;;;;;;;;;;4997375;28;20194;-69
2021/06/21 00:34:30;;;;;;;20.75;11.85;;;;;;;;;;4993661;28;20178;-69
2021/06/21 00:36:56;;;;;;;19.90;11.77;;;;;;;;;;4993610;28;20194;-69
2021/06/21 00:39:22;;;;;;;20.35;12.38;;;;;;;;;;4988896;28;20286;-69
2021/06/21 00:41:47;;;;;;;20.30;12.68;;;;;;;;;;4995615;28;20305;-70
2021/06/21 00:44:13;;;;;;;19.55;12.85;;;;;;;;;;4988060;28;20666;-69
2021/06/21 00:46:38;;;;;;;22.65;13.48;;;;;;;;;;4995015;28;20226;-71
2021/06/21 00:49:04;;;;;;;16.50;12.27;;;;;;;;;;4986585;28;20611;-74
2021/06/21 00:51:30;;;;;;;20.42;12.68;;;;;;;;;;4997053;28;20199;-74
2021/06/21 00:53:55;;;;;;;17.42;12.07;;;;;;;;;;4988316;28;20528;-73
2021/06/21 00:56:21;;;;;;;17.80;12.85;;;;;;;;;;4996323;28;20326;-72
2021/06/21 00:58:47;;;;;;;18.90;12.38;;;;;;;;;;4988717;28;20191;-72
2021/06/21 01:01:12;;;;;;;19.80;13.68;;;;;;;;;;4994217;28;20195;-71
2021/06/21 01:03:37;;;;;;;21.33;12.60;;;;;;;;;;4995392;28;20595;-71
2021/06/21 01:06:03;;;;;;;22.50;14.30;;;;;;;;;;4987567;28;20249;-74
2021/06/21 01:08:28;;;;;;;24.75;15.38;;;;;;;;;;4995256;28;20610;-73
2021/06/21 01:10:56;;;;;;;22.38;13.60;;;;;;;;;;5008108;28;20286;-73
2021/06/21 01:13:50;;;;;;;21.27;14.90;;;;;;;;;;4998039;28;20890;-72
2021/06/21 01:16:29;;;;;;;22.80;15.13;;;;;;;;;;4989495;28;20191;-71
2021/06/21 01:19:19;;;;;;;24.35;14.25;;;;;;;;;;4997033;28;20270;-74
2021/06/21 01:22:02;;;;;;;22.33;13.90;;;;;;;;;;4991432;28;21523;-75
2021/06/21 01:25:09;;;;;;;25.30;14.18;;;;;;;;;;4996961;28;20191;-75
2021/06/21 01:28:02;;;;;;;23.25;14.07;;;;;;;;;;5013007;28;20214;-70
2021/06/21 01:30:52;;;;;;;33.08;16.23;;;;;;;;;;4990137;28;21983;-73
2021/06/21 01:33:19;;;;;;;22.05;15.48;;;;;;;;;;4990365;28;20786;-72
2021/06/21 01:35:56;;;;;;;21.88;14.88;;;;;;;;;;4990945;28;20751;-73
2021/06/21 01:38:28;;;;;;;21.75;15.20;;;;;;;;;;4999112;28;20191;-75
2021/06/21 01:40:56;;;;;;;20.35;13.75;;;;;;;;;;5002567;28;20202;-72
2021/06/21 01:43:27;;;;;;;24.17;13.75;;;;;;;;;;4995619;28;20248;-72
2021/06/21 01:45:52;;;;;;;18.63;13.55;;;;;;;;;;4996754;28;20267;-72
2021/06/21 01:48:22;;;;;;;21.67;13.52;;;;;;;;;;5001342;28;20230;-72
2021/06/21 01:50:51;;;;;;;23.90;13.45;;;;;;;;;;4997432;28;20245;-73
2021/06/21 01:53:20;;;;;;;27.48;13.85;;;;;;;;;;4986075;28;20859;-75
2021/06/21 01:55:50;;;;;;;20.98;11.90;;;;;;;;;;5012920;28;20233;-73
2021/06/21 01:58:17;;;;;;;17.88;11.57;;;;;;;;;;4989495;28;20660;-72
2021/06/21 02:00:43;;;;;;;20.65;11.75;;;;;;;;;;4996833;28;20608;-71
2021/06/21 02:03:09;;;;;;;19.58;12.25;;;;;;;;;;4989689;28;20187;-70
2021/06/21 02:05:36;;;;;;;19.50;12.85;;;;;;;;;;4998918;28;20258;-73
2021/06/21 02:08:04;;;;;;;20.75;12.65;;;;;;;;;;4986768;28;20671;-72
2021/06/21 02:10:32;;;;;;;17.50;11.93;;;;;;;;;;4997938;28;20178;-72
2021/06/21 02:12:59;;;;;;;16.08;12.18;;;;;;;;;;4989816;28;20201;-72
2021/06/21 02:15:24;;;;;;;19.50;12.15;;;;;;;;;;5013523;28;20478;-71
2021/06/21 02:17:52;;;;;;;23.35;12.75;;;;;;;;;;4987001;28;20187;-75
2021/06/21 02:20:17;;;;;;;24.48;11.93;;;;;;;;;;4997710;28;20237;-73
2021/06/21 02:22:45;;;;;;;18.25;11.07;;;;;;;;;;4994075;28;20215;-75
2021/06/21 02:25:11;;;;;;;21.23;12.38;;;;;;;;;;4990762;28;20199;-70
2021/06/21 02:27:38;;;;;;;21.75;11.15;;;;;;;;;;4991324;28;20190;-71
2021/06/21 02:30:10;;;;;;;18.23;11.35;;;;;;;;;;4988848;28;20175;-71
2021/06/21 02:32:36;;;;;;;22.38;11.88;;;;;;;;;;4995901;28;20698;-71
2021/06/21 02:35:03;;;;;;;23.83;12.10;;;;;;;;;;4989928;28;20785;-72
2021/06/21 02:37:29;;;;;;;20.92;11.23;;;;;;;;;;4994998;28;20191;-72
2021/06/21 02:39:54;;;;;;;19.48;12.07;;;;;;;;;;4990568;28;20187;-73
2021/06/21 02:42:20;;;;;;;23.80;12.55;;;;;;;;;;5000461;28;20230;-73
2021/06/21 02:44:45;;;;;;;19.20;12.27;;;;;;;;;;4990289;28;20191;-71
2021/06/21 02:47:11;;;;;;;22.50;11.90;;;;;;;;;;4995957;28;20204;-73
2021/06/21 02:49:37;;;;;;;21.25;11.73;;;;;;;;;;4991173;28;20239;-73
2021/06/21 02:52:28;;;;;;;22.38;12.32;;;;;;;;;;4994404;28;20213;-72
2021/06/21 02:55:12;;;;;;;15.70;12.13;;;;;;;;;;4988559;28;20281;-71
2021/06/21 02:57:48;;;;;;;20.05;12.70;;;;;;;;;;4995236;28;20215;-74
2021/06/21 03:00:14;;;;;;;23.85;12.15;;;;;;;;;;4990664;28;20214;-72
2021/06/21 03:02:40;;;;;;;21.75;12.52;;;;;;;;;;4994395;28;20553;-71
2021/06/21 03:05:06;;;;;;;20.95;11.93;;;;;;;;;;4997198;28;20186;-74
2021/06/21 03:07:33;;;;;;;21.85;12.10;;;;;;;;;;4989784;28;20245;-71
2021/06/21 03:09:59;;;;;;;18.25;12.93;;;;;;;;;;4996564;28;20187;-72
2021/06/21 03:12:28;;;;;;;20.38;12.68;;;;;;;;;;4987248;28;20199;-71
2021/06/21 03:14:53;;;;;;;20.23;12.18;;;;;;;;;;4998335;28;20193;-71
2021/06/21 03:17:20;;;;;;;20.42;12.57;;;;;;;;;;4986608;28;20221;-71
2021/06/21 03:19:46;;;;;;;18.63;12.13;;;;;;;;;;4993394;28;20187;-71
2021/06/21 03:22:12;;;;;;;19.83;12.48;;;;;;;;;;4986922;28;20242;-71
2021/06/21 03:24:38;;;;;;;22.33;12.45;;;;;;;;;;4998088;28;20202;-72
2021/06/21 03:27:05;;;;;;;20.77;12.25;;;;;;;;;;4986549;28;20198;-71
2021/06/21 03:29:32;;;;;;;21.33;12.60;;;;;;;;;;4997164;28;20665;-72
2021/06/21 03:32:19;;;;;;;22.50;13.00;;;;;;;;;;4988504;28;20202;-73
2021/06/21 03:34:44;;;;;;;23.40;13.15;;;;;;;;;;4997727;28;20187;-72
2021/06/21 03:37:09;;;;;;;21.05;11.93;;;;;;;;;;4986068;28;21715;-72
2021/06/21 03:39:34;;;;;;;28.63;13.95;;;;;;;;;;4995497;28;20209;-71
2021/06/21 03:42:00;;;;;;;24.15;13.77;;;;;;;;;;4993456;28;20215;-71
2021/06/21 03:44:25;;;;;;;21.75;13.15;;;;;;;;;;4991968;28;20529;-72
2021/06/21 03:46:50;;;;;;;23.25;12.82;;;;;;;;;;4994880;28;20199;-72
2021/06/21 03:49:16;;;;;;;20.02;13.18;;;;;;;;;;4989192;28;20242;-72
2021/06/21 03:51:41;;;;;;;22.42;12.40;;;;;;;;;;4998107;28;20183;-72
2021/06/21 03:54:06;;;;;;;21.55;13.68;;;;;;;;;;5001227;28;20202;-71
2021/06/21 03:56:32;;;;;;;18.67;11.95;;;;;;;;;;4995853;28;20195;-73
2021/06/21 03:58:57;;;;;;;18.40;12.68;;;;;;;;;;4987554;28;20241;-74
2021/06/21 04:01:23;;;;;;;21.05;13.52;;;;;;;;;;4996308;28;20222;-74
2021/06/21 04:03:48;;;;;;;22.17;13.45;;;;;;;;;;4989848;28;20198;-75
2021/06/21 04:06:13;;;;;;;25.05;13.60;;;;;;;;;;4995210;28;20186;-71
2021/06/21 04:08:39;;;;;;;22.40;13.60;;;;;;;;;;4987984;28;20191;-72
2021/06/21 04:11:04;;;;;;;22.60;13.85;;;;;;;;;;4994502;28;20191;-72
2021/06/21 04:13:29;;;;;;;23.88;13.25;;;;;;;;;;4998445;28;20193;-72
2021/06/21 04:15:55;;;;;;;23.65;13.95;;;;;;;;;;4990047;28;21304;-76
2021/06/21 04:18:20;;;;;;;20.63;13.40;;;;;;;;;;4993102;28;20608;-74
2021/06/21 04:20:47;;;;;;;25.25;14.70;;;;;;;;;;4986986;28;20308;-74
2021/06/21 04:23:14;;;;;;;22.05;12.75;;;;;;;;;;4997727;28;20265;-78
2021/06/21 04:25:39;;;;;;;23.20;14.00;;;;;;;;;;4986313;28;20187;-72
2021/06/21 04:28:07;;;;;;;22.80;13.90;;;;;;;;;;4993412;28;20761;-72
2021/06/21 04:30:33;;;;;;;22.63;13.82;;;;;;;;;;4985743;28;20218;-74
2021/06/21 04:32:58;;;;;;;22.50;13.93;;;;;;;;;;4993736;28;20190;-73
2021/06/21 04:35:25;;;;;;;25.50;13.18;;;;;;;;;;4985287;28;20205;-71
2021/06/21 04:37:51;;;;;;;21.25;12.68;;;;;;;;;;4996036;28;20176;-71
2021/06/21 04:40:20;;;;;;;21.63;12.82;;;;;;;;;;4987602;28;20204;-75
2021/06/21 04:42:46;;;;;;;21.20;12.73;;;;;;;;;;4996073;28;20326;-72
2021/06/21 04:45:12;;;;;;;27.25;11.52;;;;;;;;;;4997712;28;20604;-75
2021/06/21 04:47:38;;;;;;;23.67;10.50;;;;;;;;;;4990140;28;20201;-73
2021/06/21 04:50:08;;;;;;;17.00;10.65;;;;;;;;;;4999817;28;20198;-75
2021/06/21 04:52:35;;;;;;;22.27;11.13;;;;;;;;;;4299867;28;10000797;-74
2021/06/21 04:55:01;;;;;;;17.75;10.52;;;;;;;;;;4996381;28;20195;-73
2021/06/21 04:57:30;;;;;;;17.85;10.60;;;;;;;;;;4988299;28;20226;-71
2021/06/21 04:59:56;;;;;;;17.67;10.27;;;;;;;;;;4993976;28;20187;-70
2021/06/21 05:02:22;;;;;;;13.20;9.10;;;;;;;;;;4982684;28;20869;-71
2021/06/21 05:04:47;;;;;;;19.33;10.23;;;;;;;;;;4992681;28;20194;-72
2021/06/21 05:07:13;;;;;;;17.35;9.18;;;;;;;;;;4984140;28;20230;-70
2021/06/21 05:09:38;;;;;;;19.75;9.32;;;;;;;;;;4995936;28;20561;-71
2021/06/21 05:12:04;;;;;;;14.73;7.95;;;;;;;;;;4982218;28;20196;-72
2021/06/21 05:14:29;;;;;;;15.60;8.23;;;;;;;;;;4996138;28;20187;-78
2021/06/21 05:16:55;;;;;;;12.10;7.53;;;;;;;;;;4994131;28;20179;-75
2021/06/21 05:19:21;;;;;;;12.60;7.28;;;;;;;;;;4999663;28;20198;-72
2021/06/21 05:21:46;;;;;;;10.13;6.82;;;;;;;;;;4995069;28;22996;-75
2021/06/21 05:24:11;;;;;;;13.15;8.32;;;;;;;;;;4985122;28;20199;-76
2021/06/21 05:26:37;;;;;;;12.73;8.13;;;;;;;;;;4994067;28;20221;-72
2021/06/21 05:29:02;;;;;;;12.13;8.20;;;;;;;;;;4985691;28;20620;-76
2021/06/21 05:31:27;;;;;;;19.70;7.70;;;;;;;;;;4999112;28;20180;-77
2021/06/21 05:33:53;;;;;;;12.80;7.82;;;;;;;;;;4992657;28;20203;-79
2021/06/21 05:36:18;;;;;;;9.75;7.10;;;;;;;;;;5005679;28;20206;-78
2021/06/21 05:38:44;;;;;;;9.10;5.80;;;;;;;;;;4995700;28;20194;-75
2021/06/21 05:41:09;;;;;;;10.98;6.43;;;;;;;;;;5000297;28;20202;-78
2021/06/21 05:43:35;;;;;;;12.88;7.32;;;;;;;;;;5015105;28;20195;-75
2021/06/21 05:46:00;;;;;;;12.35;6.65;;;;;;;;;;4990967;28;20195;-77
2021/06/21 05:48:26;;;;;;;9.45;5.30;;;;;;;;;;5002371;28;20223;-76
2021/06/21 05:50:51;;;;;;;8.40;6.00;;;;;;;;;;4996175;28;20193;-76
2021/06/21 05:53:17;;;;;;;7.32;4.95;;;;;;;;;;4657335;28;9999565;-78
2021/06/21 05:55:43;;;;;;;10.57;5.88;;;;;;;;;;4985967;28;20216;-74
2021/06/21 05:58:08;;;;;;;8.15;5.55;;;;;;;;;;4992062;28;20289;-77
2021/06/21 06:00:34;;;;;;;7.05;4.90;;;;;;;;;;4984022;28;20224;-74
2021/06/21 06:02:59;;;;;;;12.82;5.07;;;;;;;;;;4995012;28;20215;-77
2021/06/21 06:05:25;;;;;;;8.43;4.43;;;;;;;;;;4993227;28;20238;-76
2021/06/21 06:07:51;;;;;;;8.48;5.10;;;;;;;;;;4996998;28;20194;-78
2021/06/21 06:10:16;;;;;;;6.88;5.00;;;;;;;;;;5005016;28;20188;-79
2021/06/21 06:12:42;;;;;;;5.03;4.53;;;;;;;;;;4997419;28;20179;-73
2021/06/21 06:15:09;;;;;;;7.88;5.57;;;;;;;;;;4998607;28;20187;-76
2021/06/21 06:17:34;;;;;;;6.97;4.90;;;;;;;;;;5004605;28;20182;-74
2021/06/21 06:20:00;;;;;;;8.43;5.55;;;;;;;;;;4997606;28;20183;-77
2021/06/21 06:22:25;;;;;;;10.52;6.00;;;;;;;;;;4989870;28;20206;-77
2021/06/21 06:24:51;;;;;;;9.60;6.10;;;;;;;;;;4998454;28;20665;-77
2021/06/21 06:27:17;;;;;;;7.53;5.70;;;;;;;;;;4992010;28;20292;-75
2021/06/21 06:29:42;;;;;;;9.98;5.78;;;;;;;;;;4993707;28;20204;-75
2021/06/21 06:32:08;;;;;;;11.88;6.28;;;;;;;;;;4991377;28;20258;-80
2021/06/21 06:34:33;;;;;;;15.10;6.68;;;;;;;;;;5002100;28;20191;-79
2021/06/21 06:36:59;;;;;;;13.90;7.95;;;;;;;;;;5007934;28;20195;-80
2021/06/21 06:39:25;;;;;;;10.27;7.50;;;;;;;;;;5003355;28;20195;-76
2021/06/21 06:41:50;;;;;;;8.52;6.68;;;;;;;;;;5004960;28;20257;-77
2021/06/21 06:44:16;;;;;;;8.57;6.65;;;;;;;;;;4999641;28;20199;-75
2021/06/21 06:46:41;;;;;;;8.73;7.28;;;;;;;;;;4996306;28;20601;-78
2021/06/21 06:49:07;;;;;;;11.32;7.10;;;;;;;;;;4993474;28;20592;-80
2021/06/21 06:51:41;;;;;;;9.45;7.43;;;;;;;;;;5021825;28;20203;-83
2021/06/21 06:54:32;;;;;;;10.30;7.03;;;;;;;;;;4994499;28;20203;-80
2021/06/21 06:57:03;;;;;;;9.70;7.30;;;;;;;;;;4999310;28;20646;-78
2021/06/21 06:59:30;;;;;;;10.23;8.02;;;;;;;;;;5003040;28;20249;-79
2021/06/21 07:01:56;;;;;;;9.05;7.32;;;;;;;;;;5001644;28;20262;-79
2021/06/21 07:04:22;;;;;;;10.90;7.00;;;;;;;;;;4998780;28;20203;-79
2021/06/21 07:06:48;;;;;;;8.93;6.88;;;;;;;;;;5019450;28;20269;-79
2021/06/21 07:09:13;;;;;;;9.13;6.72;;;;;;;;;;4997562;28;20533;-79
2021/06/21 07:11:39;;;;;;;11.20;6.75;;;;;;;;;;5004488;28;20194;-77
2021/06/21 07:14:05;;;;;;;7.20;5.80;;;;;;;;;;5002962;28;20270;-74
2021/06/21 07:16:35;;;;;;;8.38;5.93;;;;;;;;;;4987392;28;20258;-73
2021/06/21 07:19:01;;;;;;;14.45;6.00;;;;;;;;;;4988573;28;20195;-75
2021/06/21 07:21:27;;;;;;;7.28;5.47;;;;;;;;;;4998518;28;20206;-81
2021/06/21 07:23:53;;;;;;;7.05;5.30;;;;;;;;;;5003389;28;20693;-82
2021/06/21 07:26:20;;;;;;;6.78;5.30;;;;;;;;;;4993055;28;20294;-78
2021/06/21 07:28:46;;;;;;;8.73;5.55;;;;;;;;;;5003946;28;20201;-80
2021/06/21 07:31:12;;;;;;;5.70;4.90;;;;;;;;;;4993317;28;20187;-79
2021/06/21 07:33:38;;;;;;;7.68;4.75;;;;;;;;;;5015661;28;20191;-78
2021/06/21 07:36:04;;;;;;;5.95;4.82;;;;;;;;;;4986021;28;20202;-73
2021/06/21 07:38:31;;;;;;;8.23;4.78;;;;;;;;;;5004729;28;20573;-80
2021/06/21 07:40:57;;;;;;;6.03;4.68;;;;;;;;;;4997277;28;20198;-79
2021/06/21 07:43:22;;;;;;;5.88;4.72;;;;;;;;;;4999410;28;20179;-80
2021/06/21 07:45:48;;;;;;;8.18;4.68;;;;;;;;;;4991008;28;20187;-81
2021/06/21 07:48:13;;;;;;;6.43;4.35;;;;;;;;;;4998688;28;20235;-80
2021/06/21 07:50:39;;;;;;;7.38;4.45;;;;;;;;;;4992913;28;20952;-79
2021/06/21 07:53:06;;;;;;;5.28;4.60;;;;;;;;;;4999866;28;20226;-77
2021/06/21 07:55:33;;;;;;;4.82;3.78;;;;;;;;;;4999123;28;20184;-77
2021/06/21 07:57:58;;;;;;;6.03;3.67;;;;;;;;;;4991452;28;20943;-78
2021/06/21 08:00:27;;;;;;;4.20;3.63;;;;;;;;;;4996887;28;20294;-78
2021/06/21 08:02:53;;;;;;;7.82;3.60;;;;;;;;;;4989538;28;20234;-75
2021/06/21 08:05:19;;;;;;;5.47;3.47;;;;;;;;;;4996938;28;20233;-79
2021/06/21 08:07:45;;;;;;;3.00;2.70;;;;;;;;;;4988990;28;20182;-73
2021/06/21 08:10:11;;;;;;;4.15;2.45;;;;;;;;;;4996734;28;20220;-71
2021/06/21 08:12:37;;;;;;;4.97;3.17;;;;;;;;;;4988464;28;20189;-76
2021/06/21 08:15:04;;;;;;;3.45;2.67;;;;;;;;;;4994221;28;20333;-71
2021/06/21 08:17:30;;;;;;;4.30;2.95;;;;;;;;;;4988600;28;20217;-76
2021/06/21 08:19:55;;;;;;;3.85;2.65;;;;;;;;;;5009401;28;20187;-76
2021/06/21 08:22:23;;;;;;;3.03;2.55;;;;;;;;;;4988070;28;20205;-74
2021/06/21 08:24:49;;;;;;;2.63;2.30;;;;;;;;;;4995828;28;20183;-75
2021/06/21 08:27:15;;;;;;;4.00;2.65;;;;;;;;;;5009410;28;20827;-75
2021/06/21 08:29:42;;;;;;;3.42;2.45;;;;;;;;;;5001762;28;20202;-73
2021/06/21 08:32:07;;;;;;;4.97;2.95;;;;;;;;;;5001837;28;20210;-73
2021/06/21 08:34:32;;;;;;;5.95;2.95;;;;;;;;;;4985992;28;20237;-73
2021/06/21 08:36:58;;;;;;;3.38;2.78;;;;;;;;;;4995770;28;20186;-73
2021/06/21 08:39:23;;;;;;;4.60;2.72;;;;;;;;;;4983017;28;20195;-72
2021/06/21 08:41:49;;;;;;;3.22;2.65;;;;;;;;;;4998323;28;20650;-71
2021/06/21 08:44:14;;;;;;;4.18;3.20;;;;;;;;;;4983227;28;20209;-72
2021/06/21 08:46:41;;;;;;;3.58;2.65;;;;;;;;;;4993152;28;20213;-70
2021/06/21 08:49:08;;;;;;;2.83;2.42;;;;;;;;;;4986337;28;20769;-71
2021/06/21 08:51:36;;;;;;;3.05;2.25;;;;;;;;;;4999186;28;20179;-73
2021/06/21 08:54:02;;;;;;;3.78;2.58;;;;;;;;;;4986457;28;20248;-76
2021/06/21 08:56:27;;;;;;;5.65;2.70;;;;;;;;;;4999364;28;20191;-76
2021/06/21 08:58:52;;;;;;;4.15;2.83;;;;;;;;;;4994248;28;20199;-77
2021/06/21 09:01:18;;;;;;;3.25;2.92;;;;;;;;;;4988642;28;20313;-77
2021/06/21 09:03:44;;;;;;;3.05;2.50;;;;;;;;;;4989149;28;20320;-76
2021/06/21 09:06:20;;;;;;;3.38;2.60;;;;;;;;;;4988752;28;20195;-73
2021/06/21 09:08:53;;;;;;;3.60;2.60;;;;;;;;;;4994568;28;20194;-76
2021/06/21 09:11:18;;;;;;;4.22;2.78;;;;;;;;;;4984847;28;20285;-77
2021/06/21 09:13:44;;;;;;;4.28;2.67;;;;;;;;;;4994624;28;20219;-76
2021/06/21 09:16:09;;;;;;;3.78;2.70;;;;;;;;;;4987015;28;20218;-73
2021/06/21 09:18:39;;;;;;;4.88;2.90;;;;;;;;;;4993473;28;20186;-72
2021/06/21 09:21:19;;;;;;;3.45;2.33;;;;;;;;;;4986694;28;20278;-73
2021/06/21 09:23:46;;;;;;;6.63;2.97;;;;;;;;;;4993973;28;20733;-76
2021/06/21 09:26:20;;;;;;;2.63;2.33;;;;;;;;;;4987633;28;20230;-76
2021/06/21 09:28:46;;;;;;;4.45;2.95;;;;;;;;;;4996425;28;20199;-76
2021/06/21 09:31:12;;;;;;;4.22;3.10;;;;;;;;;;4988103;28;20304;-75
2021/06/21 09:33:37;;;;;;;4.95;2.97;;;;;;;;;;4998641;28;20311;-76
2021/06/21 09:36:04;;;;;;;5.07;2.80;;;;;;;;;;4994880;28;20210;-76
2021/06/21 09:38:29;;;;;;;3.28;2.80;;;;;;;;;;5000894;28;20276;-75
2021/06/21 09:40:57;;;;;;;4.97;2.85;;;;;;;;;;5013593;28;20275;-75
2021/06/21 09:43:31;;;;;;;4.13;2.72;;;;;;;;;;4991144;28;20650;-77
2021/06/21 09:46:05;;;;;;;3.78;3.30;;;;;;;;;;5000355;28;20178;-75
2021/06/21 09:48:50;;;;;;;6.35;3.55;;;;;;;;;;4990139;28;20791;-75
2021/06/21 09:51:26;;;;;;;7.00;4.28;;;;;;;;;;4998594;28;20231;-78
2021/06/21 09:53:57;;;;;;;6.05;3.80;;;;;;;;;;4992246;28;20201;-76
2021/06/21 09:56:36;;;;;;;5.18;3.42;;;;;;;;;;5014327;28;20686;-78
2021/06/21 09:59:18;;;;;;;7.13;3.53;;;;;;;;;;4991337;28;20372;-77
2021/06/21 10:01:44;;;;;;;6.22;3.25;;;;;;;;;;4997366;28;20297;-77
2021/06/21 10:04:23;;;;;;;8.55;4.00;;;;;;;;;;5008825;28;20321;-81
2021/06/21 10:06:49;;;;;;;4.28;3.80;;;;;;;;;;5001670;28;20549;-76
2021/06/21 10:09:14;;;;;;;7.20;3.70;;;;;;;;;;4992628;28;20195;-79
2021/06/21 10:11:43;;;;;;;5.32;3.55;;;;;;;;;;5000659;28;20314;-78
2021/06/21 10:14:17;;;;;;;5.10;2.97;;;;;;;;;;4994310;28;20555;-76
2021/06/21 10:16:44;;;;;;;7.85;3.78;;;;;;;;;;5005699;28;20544;-77
2021/06/21 10:19:10;;;;;;;3.58;3.00;;;;;;;;;;5006883;28;20195;-77
2021/06/21 10:21:39;;;;;;;6.38;3.40;;;;;;;;;;5012639;28;20207;-74
2021/06/21 10:24:05;;;;;;;7.72;3.25;;;;;;;;;;5006219;28;20195;-73
2021/06/21 10:26:31;;;;;;;4.40;2.97;;;;;;;;;;4999495;28;20205;-74
2021/06/21 10:28:57;;;;;;;4.43;3.53;;;;;;;;;;4991790;28;20186;-74
2021/06/21 10:31:33;;;;;;;4.95;3.30;;;;;;;;;;4997092;28;20493;-72
2021/06/21 10:34:01;;;;;;;4.38;3.70;;;;;;;;;;4999054;28;20167;-79
2021/06/21 10:36:44;;;;;;;4.53;3.90;;;;;;;;;;4993840;28;20215;-79
2021/06/21 10:39:21;;;;;;;5.10;3.20;;;;;;;;;;5000486;28;20196;-75
2021/06/21 10:42:05;;;;;;;3.85;3.22;;;;;;;;;;4999617;28;20241;-73
2021/06/21 10:44:50;;;;;;;3.70;3.30;;;;;;;;;;4998835;28;20191;-75
2021/06/21 10:47:25;;;;;;;4.05;3.47;;;;;;;;;;4993135;28;20267;-76
2021/06/21 10:50:21;;;;;;;4.95;4.05;;;;;;;;;;4991755;28;20591;-74
2021/06/21 10:52:57;;;;;;;4.30;3.90;;;;;;;;;;4995550;28;20189;-74
2021/06/21 10:55:22;;;;;;;6.03;3.85;;;;;;;;;;4987704;28;20194;-76
2021/06/21 10:57:58;;;;;;;5.43;4.25;;;;;;;;;;4998272;28;20195;-77
2021/06/21 11:00:34;;;;;;;5.63;4.32;;;;;;;;;;4993281;28;20214;-75
2021/06/21 11:03:29;;;;;;;4.13;3.83;;;;;;;;;;4997107;28;20764;-78
2021/06/21 11:05:59;;;;;;;4.00;3.70;;;;;;;;;;4986944;28;20191;-75
2021/06/21 11:08:27;;;;;;;4.63;4.00;;;;;;;;;;4999080;28;20277;-74
2021/06/21 11:10:55;;;;;;;4.75;4.15;;;;;;;;;;4997152;28;20187;-75
2021/06/21 11:13:32;;;;;;;4.80;4.03;;;;;;;;;;4986713;28;20191;-77
2021/06/21 11:16:19;;;;;;;4.00;3.40;;;;;;;;;;4998456;28;20197;-75
2021/06/21 11:19:21;;;;;;;4.90;3.35;;;;;;;;;;4996665;28;20281;-76
2021/06/21 11:22:04;;;;;;;4.60;3.50;;;;;;;;;;4989910;28;20257;-72
2021/06/21 11:24:35;;;;;;;3.65;3.35;;;;;;;;;;4997725;28;20190;-75
2021/06/21 11:27:04;;;;;;;3.75;3.35;;;;;;;;;;4987181;28;20541;-76
2021/06/21 11:29:35;;;;;;;4.32;3.55;;;;;;;;;;4998042;28;20186;-75
2021/06/21 11:32:03;;;;;;;5.25;3.33;;;;;;;;;;4996012;28;20673;-75
2021/06/21 11:34:57;;;;;;;6.50;3.70;;;;;;;;;;4990600;28;20599;-76
2021/06/21 11:37:38;;;;;;;5.30;3.80;;;;;;;;;;4988998;28;20265;-77
2021/06/21 11:40:30;;;;;;;4.30;3.25;;;;;;;;;;4997208;28;20650;-76
2021/06/21 11:43:01;;;;;;;4.13;2.75;;;;;;;;;;4987569;28;20210;-74
2021/06/21 11:45:50;;;;;;;3.97;3.00;;;;;;;;;;4998492;28;20191;-75
2021/06/21 11:48:23;;;;;;;3.45;2.90;;;;;;;;;;4988355;28;21597;-73
2021/06/21 11:50:49;;;;;;;5.53;2.72;;;;;;;;;;4996680;28;20191;-75
2021/06/21 11:53:15;;;;;;;3.53;3.10;;;;;;;;;;4987436;28;20229;-76
2021/06/21 11:55:40;;;;;;;4.07;3.47;;;;;;;;;;4994368;28;20211;-75
2021/06/21 11:58:05;;;;;;;4.78;3.63;;;;;;;;;;4997302;28;20183;-76
2021/06/21 12:00:34;;;;;;;6.45;3.88;;;;;;;;;;4987892;28;20675;-75
2021/06/21 12:03:07;;;;;;;6.55;4.03;;;;;;;;;;4997372;28;20844;-75
2021/06/21 12:05:32;;;;;;;6.13;3.53;;;;;;;;;;4987610;28;20659;-74
2021/06/21 12:07:58;;;;;;;3.17;2.88;;;;;;;;;;4996343;28;20188;-74
2021/06/21 12:10:23;;;;;;;3.38;2.97;;;;;;;;;;4987666;28;21358;-76
2021/06/21 12:12:53;;;;;;;4.40;3.55;;;;;;;;;;4995759;28;20752;-75
2021/06/21 12:15:37;;;;;;;3.88;3.00;;;;;;;;;;4987296;28;20274;-74
2021/06/21 12:18:03;;;;;;;3.50;2.67;;;;;;;;;;4995569;28;20228;-75
2021/06/21 12:20:31;;;;;;;2.58;2.35;;;;;;;;;;4987409;28;20212;-75
2021/06/21 12:23:04;;;;;;;3.92;2.10;;;;;;;;;;4995794;28;20194;-72
2021/06/21 12:25:33;;;;;;;3.78;2.13;;;;;;;;;;4986903;28;20206;-74
2021/06/21 12:28:28;;;;;;;3.25;2.30;;;;;;;;;;4994243;28;21402;-73
2021/06/21 12:30:54;;;;;;;4.28;2.30;;;;;;;;;;4985283;28;20366;-75
2021/06/21 12:33:28;;;;;;;3.30;1.98;;;;;;;;;;4993098;28;20530;-74
2021/06/21 12:36:17;;;;;;;2.90;1.85;;;;;;;;;;4985831;28;20666;-71
2021/06/21 12:39:04;;;;;;;3.28;2.10;;;;;;;;;;4304006;28;10000850;-71
2021/06/21 12:41:37;;;;;;;3.17;1.73;;;;;;;;;;4980468;28;20211;-72
2021/06/21 12:44:07;;;;;;;2.53;1.67;;;;;;;;;;4987675;28;20187;-71
2021/06/21 12:46:39;;;;;;;4.07;1.60;;;;;;;;;;4978370;28;20187;-70
2021/06/21 12:49:15;;;;;;;2.50;1.40;;;;;;;;;;4985362;28;20766;-71
2021/06/21 12:51:42;;;;;;;2.58;1.50;;;;;;;;;;4980297;28;20194;-70
2021/06/21 12:54:09;;;;;;;2.22;1.13;;;;;;;;;;4989045;28;20220;-74
2021/06/21 12:56:37;;;;;;;2.58;1.50;;;;;;;;;;4979231;28;20288;-69
2021/06/21 12:59:04;;;;;;;5.18;1.75;;;;;;;;;;4992106;28;20187;-69
2021/06/21 13:01:35;;;;;;;2.20;1.45;;;;;;;;;;4986122;28;20256;-69
2021/06/21 13:04:14;;;;;;;1.60;1.50;;;;;;;;;;4981334;28;20206;-71
2021/06/21 13:06:41;;;;;;;1.83;1.45;;;;;;;;;;4989946;28;20205;-70
2021/06/21 13:09:08;;;;;;;2.75;1.40;;;;;;;;;;4984632;28;20564;-73
2021/06/21 13:11:54;;;;;;;1.90;1.30;;;;;;;;;;4993810;28;20205;-69
2021/06/21 13:14:26;;;;;;;1.70;1.60;;;;;;;;;;4983983;28;20194;-70
2021/06/21 13:17:10;;;;;;;2.65;1.45;;;;;;;;;;4991612;28;20550;-73
2021/06/21 13:20:06;;;;;;;3.33;2.30;;;;;;;;;;4984194;28;20285;-70
2021/06/21 13:22:33;;;;;;;2.22;1.90;;;;;;;;;;4993218;28;20675;-69
2021/06/21 13:25:19;;;;;;;2.20;1.90;;;;;;;;;;4982194;28;20238;-70
2021/06/21 13:28:04;;;;;;;2.75;1.85;;;;;;;;;;4996005;28;20211;-71
2021/06/21 13:30:35;;;;;;;3.08;1.65;;;;;;;;;;4986785;28;20195;-71
2021/06/21 13:33:09;;;;;;;1.88;1.20;;;;;;;;;;4993552;28;20178;-70
2021/06/21 13:35:36;;;;;;;2.58;1.25;;;;;;;;;;4985315;28;20244;-74
2021/06/21 13:38:03;;;;;;;1.30;1.20;;;;;;;;;;5010434;28;20405;-71
2021/06/21 13:40:33;;;;;;;0.77;0.73;;;;;;;;;;4984028;28;20204;-72
2021/06/21 13:43:01;;;;;;;2.30;1.20;;;;;;;;;;4997059;28;20210;-70
2021/06/21 13:45:33;;;;;;;2.10;1.02;;;;;;;;;;4987517;28;20271;-70
2021/06/21 13:48:04;;;;;;;1.33;1.20;;;;;;;;;;4997026;28;20231;-71
2021/06/21 13:50:52;;;;;;;1.88;1.20;;;;;;;;;;4987751;28;20212;-70
2021/06/21 13:53:37;;;;;;;2.55;1.85;;;;;;;;;;4997928;28;20210;-71
2021/06/21 13:56:06;;;;;;;1.75;1.65;;;;;;;;;;4984750;28;20192;-71
2021/06/21 13:58:36;;;;;;;3.05;1.90;;;;;;;;;;4998059;28;20191;-72
2021/06/21 14:01:10;;;;;;;3.58;2.00;;;;;;;;;;4985184;28;20221;-71
2021/06/21 14:03:36;;;;;;;4.45;1.80;;;;;;;;;;4996801;28;20194;-73
2021/06/21 14:06:04;;;;;;;2.83;1.90;;;;;;;;;;4980057;28;20194;-73
2021/06/21 14:08:32;;;;;;;1.77;1.40;;;;;;;;;;4996757;28;20244;-71
2021/06/21 14:11:06;;;;;;;1.58;1.40;;;;;;;;;;4985126;28;20229;-72
2021/06/21 14:13:32;;;;;;;1.95;1.42;;;;;;;;;;4998202;28;20665;-71
2021/06/21 14:15:57;;;;;;;2.53;1.15;;;;;;;;;;4984333;28;20249;-72
2021/06/21 14:18:24;;;;;;;1.88;1.50;;;;;;;;;;4993987;28;20328;-71
2021/06/21 14:20:50;;;;;;;1.38;1.27;;;;;;;;;;4993655;28;20353;-70
2021/06/21 14:23:15;;;;;;;1.17;1.10;;;;;;;;;;4986322;28;20312;-72
2021/06/21 14:25:42;;;;;;;1.50;1.20;;;;;;;;;;4991327;28;20253;-72
2021/06/21 14:28:08;;;;;;;2.10;1.60;;;;;;;;;;4986351;28;20201;-71
2021/06/21 14:30:35;;;;;;;2.22;1.52;;;;;;;;;;4996382;28;20573;-72
2021/06/21 14:33:01;;;;;;;1.88;1.50;;;;;;;;;;4986113;28;20209;-70
2021/06/21 14:35:26;;;;;;;2.35;1.00;;;;;;;;;;4994641;28;23784;-71
2021/06/21 14:37:52;;;;;;;2.22;1.20;;;;;;;;;;4986476;28;20196;-69
2021/06/21 14:40:17;;;;;;;1.08;0.98;;;;;;;;;;4992760;28;20204;-68
2021/06/21 14:42:43;;;;;;;1.45;1.00;;;;;;;;;;4980582;28;20566;-67
2021/06/21 14:45:10;;;;;;;1.83;0.95;;;;;;;;;;4990740;28;20198;-68